Abernathy, TX

11:17 PM CST on December 09, 2019 (GMT -0600)
Abernathy Texas | | Change Station

Elev 3638 ft 33.83 °N, 101.85 °W | Updated 8 seconds ago

Overcast
Overcast
37 °F
Feels Like 37 °F
N
3
Wind Variable Wind from ENE
Gusts 4.0 mph

Today
High -- | Low -- °F
--% Chance of Precip.
Yesterday
High -- | Low -- °F
Precip. -- in
Pressure 30.07 in
Visibility 10.0 miles
Clouds Mostly Cloudy 4500 ft
Overcast 5000 ft
Windchill 37 °F
Dew Point 23 °F
Humidity 56%
Rainfall 0.00 in
Snow Depth Not available.
7:40 AM 5:38 PM
Waxing Gibbous, 96% visible
METAR KLBB 100353Z 06012KT 10SM BKN045 OVC050 04/M04 A3010 RMK AO2 SLP182 T00391044
Pressure 30.07 in
Visibility 10.0 miles
Clouds Mostly Cloudy 4500 ft
Overcast 5000 ft
Windchill 37 °F
Dew Point 23 °F
Humidity 56%
Rainfall 0.00 in
Snow Depth Not available.
7:40 AM 5:38 PM
Waxing Gibbous, 96% visible
METAR KLBB 100353Z 06012KT 10SM BKN045 OVC050 04/M04 A3010 RMK AO2 SLP182 T00391044

Get Severe Weather Alerts

Thanks for signing up!

Be on the lookout for a verification email in your inbox.

You'll start receiving the daily forecast at 6 AM.

×

10-Day Weather Forecast

Almanac

Astronomy

Dec. 09, 2019 Rise Set
Actual Time
Civil Twilight
Nautical Twilight
Astronomical Twilight
Moon
Length of Visible Light
Length of Day
Tomorrow will be .
, % of the Moon is Illuminated

Today's Extremes

State Highs State Lows

Community

WunderPhotos

Category 6

Welcome to Category 6. This is the collective home for Weather Underground's featured writeups by Dr. Jeff Masters (right), Bob Henson (left), Chris Burt, and other regular contributors.

Nearby

Air Quality

  Air Quality AQ Index Pollutant
Not available.

Snow Depth

Station Depth Elevation

Earthquake Activity

City Distance Mag. Time & Date
Minimum magnitude displayed is 2.5.

Coastal Water Temperatures

Place Temperature

Stations

Nearby Weather Stations

Station Location Temp. Windchill Dew Point Humidity Wind Precip. Elev Updated Type
                   

Watches & Warnings

There are currently no watches in effect.